sensor_id;sensor_type;location;lat;lon;timestamp;P1;durP1;ratioP1;P2;durP2;ratioP2
66478;SDS011;53294;47.912;13.526;2022-08-24T00:02:06;5.72;;;4.10;;
66478;SDS011;53294;47.912;13.526;2022-08-24T00:04:37;6.72;;;4.22;;
66478;SDS011;53294;47.912;13.526;2022-08-24T00:07:04;6.88;;;4.45;;
66478;SDS011;53294;47.912;13.526;2022-08-24T00:09:51;6.65;;;5.05;;
66478;SDS011;53294;47.912;13.526;2022-08-24T00:12:18;5.25;;;3.95;;
66478;SDS011;53294;47.912;13.526;2022-08-24T00:14:46;6.53;;;4.60;;
66478;SDS011;53294;47.912;13.526;2022-08-24T00:17:15;6.00;;;4.75;;
66478;SDS011;53294;47.912;13.526;2022-08-24T00:19:42;7.18;;;5.00;;
66478;SDS011;53294;47.912;13.526;2022-08-24T00:22:09;6.03;;;4.90;;
66478;SDS011;53294;47.912;13.526;2022-08-24T00:24:36;8.70;;;5.18;;
66478;SDS011;53294;47.912;13.526;2022-08-24T00:27:03;6.07;;;4.90;;
66478;SDS011;53294;47.912;13.526;2022-08-24T00:29:32;5.75;;;4.20;;
66478;SDS011;53294;47.912;13.526;2022-08-24T00:31:59;5.40;;;4.30;;
66478;SDS011;53294;47.912;13.526;2022-08-24T00:34:26;5.38;;;3.75;;
66478;SDS011;53294;47.912;13.526;2022-08-24T00:36:53;4.95;;;3.45;;
66478;SDS011;53294;47.912;13.526;2022-08-24T00:39:19;6.13;;;4.10;;
66478;SDS011;53294;47.912;13.526;2022-08-24T00:41:47;5.43;;;4.25;;
66478;SDS011;53294;47.912;13.526;2022-08-24T00:44:16;5.55;;;4.35;;
66478;SDS011;53294;47.912;13.526;2022-08-24T00:46:47;6.45;;;4.28;;
66478;SDS011;53294;47.912;13.526;2022-08-24T00:52:23;6.10;;;4.63;;
66478;SDS011;53294;47.912;13.526;2022-08-24T00:54:56;7.90;;;5.13;;
66478;SDS011;53294;47.912;13.526;2022-08-24T00:57:29;6.60;;;4.53;;
66478;SDS011;53294;47.912;13.526;2022-08-24T01:00:00;5.22;;;4.07;;
66478;SDS011;53294;47.912;13.526;2022-08-24T01:02:33;6.95;;;4.78;;
66478;SDS011;53294;47.912;13.526;2022-08-24T01:05:05;6.00;;;4.55;;
66478;SDS011;53294;47.912;13.526;2022-08-24T01:07:34;6.60;;;4.22;;
66478;SDS011;53294;47.912;13.526;2022-08-24T01:10:07;6.15;;;3.95;;
66478;SDS011;53294;47.912;13.526;2022-08-24T01:12:37;5.78;;;4.05;;
66478;SDS011;53294;47.912;13.526;2022-08-24T01:15:17;5.82;;;3.83;;
66478;SDS011;53294;47.912;13.526;2022-08-24T01:17:45;5.45;;;4.07;;
66478;SDS011;53294;47.912;13.526;2022-08-24T01:20:30;4.72;;;3.30;;
66478;SDS011;53294;47.912;13.526;2022-08-24T01:23:11;4.68;;;3.60;;
66478;SDS011;53294;47.912;13.526;2022-08-24T01:25:48;5.97;;;3.95;;
66478;SDS011;53294;47.912;13.526;2022-08-24T01:28:16;5.78;;;4.47;;
66478;SDS011;53294;47.912;13.526;2022-08-24T01:30:52;6.00;;;4.30;;
66478;SDS011;53294;47.912;13.526;2022-08-24T01:33:23;5.88;;;4.45;;
66478;SDS011;53294;47.912;13.526;2022-08-24T01:36:01;6.85;;;5.40;;
66478;SDS011;53294;47.912;13.526;2022-08-24T01:38:32;9.80;;;4.68;;
66478;SDS011;53294;47.912;13.526;2022-08-24T01:41:00;6.75;;;4.60;;
66478;SDS011;53294;47.912;13.526;2022-08-24T01:43:28;6.05;;;4.45;;
66478;SDS011;53294;47.912;13.526;2022-08-24T01:45:56;6.05;;;4.80;;
66478;SDS011;53294;47.912;13.526;2022-08-24T01:48:23;6.32;;;4.80;;
66478;SDS011;53294;47.912;13.526;2022-08-24T01:50:50;7.72;;;5.57;;
66478;SDS011;53294;47.912;13.526;2022-08-24T01:53:17;6.30;;;4.70;;
66478;SDS011;53294;47.912;13.526;2022-08-24T01:55:45;6.88;;;4.95;;
66478;SDS011;53294;47.912;13.526;2022-08-24T01:58:12;7.55;;;5.30;;
66478;SDS011;53294;47.912;13.526;2022-08-24T02:00:39;6.43;;;5.00;;
66478;SDS011;53294;47.912;13.526;2022-08-24T02:03:07;6.97;;;5.20;;
66478;SDS011;53294;47.912;13.526;2022-08-24T02:05:33;6.88;;;5.03;;
66478;SDS011;53294;47.912;13.526;2022-08-24T02:08:01;6.03;;;4.63;;
66478;SDS011;53294;47.912;13.526;2022-08-24T02:10:29;10.32;;;5.00;;
66478;SDS011;53294;47.912;13.526;2022-08-24T02:12:56;6.63;;;4.85;;
66478;SDS011;53294;47.912;13.526;2022-08-24T02:15:28;6.80;;;4.90;;
66478;SDS011;53294;47.912;13.526;2022-08-24T02:17:57;6.40;;;4.88;;
66478;SDS011;53294;47.912;13.526;2022-08-24T02:20:25;6.07;;;4.63;;
66478;SDS011;53294;47.912;13.526;2022-08-24T02:22:52;7.07;;;5.28;;
66478;SDS011;53294;47.912;13.526;2022-08-24T02:25:20;6.65;;;5.35;;
66478;SDS011;53294;47.912;13.526;2022-08-24T02:27:47;7.38;;;5.30;;
66478;SDS011;53294;47.912;13.526;2022-08-24T02:30:14;6.65;;;4.93;;
66478;SDS011;53294;47.912;13.526;2022-08-24T02:32:41;8.00;;;5.13;;
66478;SDS011;53294;47.912;13.526;2022-08-24T02:35:08;7.72;;;5.10;;
66478;SDS011;53294;47.912;13.526;2022-08-24T02:37:35;5.70;;;4.20;;
66478;SDS011;53294;47.912;13.526;2022-08-24T02:40:09;5.40;;;4.22;;
66478;SDS011;53294;47.912;13.526;2022-08-24T02:42:36;5.38;;;3.88;;
66478;SDS011;53294;47.912;13.526;2022-08-24T02:45:03;5.63;;;4.38;;
66478;SDS011;53294;47.912;13.526;2022-08-24T02:47:31;5.78;;;4.50;;
66478;SDS011;53294;47.912;13.526;2022-08-24T02:50:04;5.95;;;4.50;;
66478;SDS011;53294;47.912;13.526;2022-08-24T02:52:32;6.35;;;4.45;;
66478;SDS011;53294;47.912;13.526;2022-08-24T02:55:01;6.25;;;4.75;;
66478;SDS011;53294;47.912;13.526;2022-08-24T02:57:27;6.07;;;5.05;;
66478;SDS011;53294;47.912;13.526;2022-08-24T02:59:54;7.65;;;4.63;;
66478;SDS011;53294;47.912;13.526;2022-08-24T03:02:21;6.22;;;4.50;;
66478;SDS011;53294;47.912;13.526;2022-08-24T03:04:48;6.20;;;4.60;;
66478;SDS011;53294;47.912;13.526;2022-08-24T03:07:14;6.18;;;3.85;;
66478;SDS011;53294;47.912;13.526;2022-08-24T03:09:41;5.10;;;3.80;;
66478;SDS011;53294;47.912;13.526;2022-08-24T03:12:08;5.35;;;3.92;;
66478;SDS011;53294;47.912;13.526;2022-08-24T03:14:35;6.43;;;4.40;;
66478;SDS011;53294;47.912;13.526;2022-08-24T03:17:01;5.82;;;5.00;;
66478;SDS011;53294;47.912;13.526;2022-08-24T03:19:28;7.78;;;5.13;;
66478;SDS011;53294;47.912;13.526;2022-08-24T03:21:55;7.90;;;5.10;;
66478;SDS011;53294;47.912;13.526;2022-08-24T03:24:22;7.47;;;5.22;;
66478;SDS011;53294;47.912;13.526;2022-08-24T03:26:49;6.97;;;5.25;;
66478;SDS011;53294;47.912;13.526;2022-08-24T03:29:16;7.10;;;5.47;;
66478;SDS011;53294;47.912;13.526;2022-08-24T03:31:43;6.25;;;5.00;;
66478;SDS011;53294;47.912;13.526;2022-08-24T03:34:10;6.65;;;5.35;;
66478;SDS011;53294;47.912;13.526;2022-08-24T03:36:39;6.68;;;5.45;;
66478;SDS011;53294;47.912;13.526;2022-08-24T03:39:08;6.70;;;5.15;;
66478;SDS011;53294;47.912;13.526;2022-08-24T03:41:34;6.22;;;4.90;;
66478;SDS011;53294;47.912;13.526;2022-08-24T03:44:02;8.25;;;5.57;;
66478;SDS011;53294;47.912;13.526;2022-08-24T03:46:29;7.60;;;5.60;;
66478;SDS011;53294;47.912;13.526;2022-08-24T03:49:03;7.75;;;6.03;;
66478;SDS011;53294;47.912;13.526;2022-08-24T03:51:34;6.85;;;5.30;;
66478;SDS011;53294;47.912;13.526;2022-08-24T03:54:02;8.93;;;6.00;;
66478;SDS011;53294;47.912;13.526;2022-08-24T03:56:31;6.43;;;4.95;;
66478;SDS011;53294;47.912;13.526;2022-08-24T03:58:57;6.80;;;5.20;;
66478;SDS011;53294;47.912;13.526;2022-08-24T04:01:24;6.55;;;5.03;;
66478;SDS011;53294;47.912;13.526;2022-08-24T04:03:51;8.90;;;6.32;;
66478;SDS011;53294;47.912;13.526;2022-08-24T04:06:19;7.95;;;6.32;;
66478;SDS011;53294;47.912;13.526;2022-08-24T04:08:47;9.10;;;6.70;;
66478;SDS011;53294;47.912;13.526;2022-08-24T04:11:16;11.85;;;8.70;;
66478;SDS011;53294;47.912;13.526;2022-08-24T04:13:45;10.60;;;7.15;;
66478;SDS011;53294;47.912;13.526;2022-08-24T04:16:14;10.57;;;7.40;;
66478;SDS011;53294;47.912;13.526;2022-08-24T04:18:43;10.88;;;7.53;;
66478;SDS011;53294;47.912;13.526;2022-08-24T04:21:14;10.98;;;6.68;;
66478;SDS011;53294;47.912;13.526;2022-08-24T04:23:53;9.77;;;6.88;;
66478;SDS011;53294;47.912;13.526;2022-08-24T04:26:21;7.95;;;5.90;;
66478;SDS011;53294;47.912;13.526;2022-08-24T04:29:09;13.27;;;8.27;;
66478;SDS011;53294;47.912;13.526;2022-08-24T04:31:37;13.75;;;9.45;;
66478;SDS011;53294;47.912;13.526;2022-08-24T04:34:06;15.10;;;10.73;;
66478;SDS011;53294;47.912;13.526;2022-08-24T04:36:33;17.83;;;11.50;;
66478;SDS011;53294;47.912;13.526;2022-08-24T04:39:01;21.08;;;12.93;;
66478;SDS011;53294;47.912;13.526;2022-08-24T04:41:28;19.73;;;12.23;;
66478;SDS011;53294;47.912;13.526;2022-08-24T04:43:57;18.17;;;11.82;;
66478;SDS011;53294;47.912;13.526;2022-08-24T04:46:25;18.35;;;12.52;;
66478;SDS011;53294;47.912;13.526;2022-08-24T04:48:53;21.55;;;14.23;;
66478;SDS011;53294;47.912;13.526;2022-08-24T04:51:20;21.60;;;14.55;;
66478;SDS011;53294;47.912;13.526;2022-08-24T04:53:47;22.15;;;13.88;;
66478;SDS011;53294;47.912;13.526;2022-08-24T04:56:20;23.10;;;14.40;;
66478;SDS011;53294;47.912;13.526;2022-08-24T04:58:49;19.98;;;14.35;;
66478;SDS011;53294;47.912;13.526;2022-08-24T05:01:18;18.88;;;13.68;;
66478;SDS011;53294;47.912;13.526;2022-08-24T05:03:48;22.42;;;15.68;;
66478;SDS011;53294;47.912;13.526;2022-08-24T05:06:17;17.05;;;12.82;;
66478;SDS011;53294;47.912;13.526;2022-08-24T05:08:45;19.90;;;14.23;;
66478;SDS011;53294;47.912;13.526;2022-08-24T05:11:13;17.90;;;14.63;;
66478;SDS011;53294;47.912;13.526;2022-08-24T05:13:43;19.38;;;13.40;;
66478;SDS011;53294;47.912;13.526;2022-08-24T05:16:11;18.58;;;13.85;;
66478;SDS011;53294;47.912;13.526;2022-08-24T05:18:41;18.00;;;12.55;;
66478;SDS011;53294;47.912;13.526;2022-08-24T05:21:08;18.13;;;12.63;;
66478;SDS011;53294;47.912;13.526;2022-08-24T05:23:38;17.95;;;12.80;;
66478;SDS011;53294;47.912;13.526;2022-08-24T05:26:14;17.30;;;12.85;;
66478;SDS011;53294;47.912;13.526;2022-08-24T05:28:42;17.90;;;13.45;;
66478;SDS011;53294;47.912;13.526;2022-08-24T05:33:44;18.40;;;13.43;;
66478;SDS011;53294;47.912;13.526;2022-08-24T05:36:31;18.90;;;13.90;;
66478;SDS011;53294;47.912;13.526;2022-08-24T05:39:00;20.08;;;14.75;;
66478;SDS011;53294;47.912;13.526;2022-08-24T05:41:36;20.15;;;14.55;;
66478;SDS011;53294;47.912;13.526;2022-08-24T05:44:09;19.05;;;14.38;;
66478;SDS011;53294;47.912;13.526;2022-08-24T05:46:37;21.08;;;13.98;;
66478;SDS011;53294;47.912;13.526;2022-08-24T05:49:04;18.67;;;13.45;;
66478;SDS011;53294;47.912;13.526;2022-08-24T05:51:33;19.13;;;14.40;;
66478;SDS011;53294;47.912;13.526;2022-08-24T05:54:01;18.45;;;13.00;;
66478;SDS011;53294;47.912;13.526;2022-08-24T05:56:30;16.13;;;12.73;;
66478;SDS011;53294;47.912;13.526;2022-08-24T05:58:57;17.95;;;12.25;;
66478;SDS011;53294;47.912;13.526;2022-08-24T06:01:24;16.08;;;12.68;;
66478;SDS011;53294;47.912;13.526;2022-08-24T06:03:52;17.90;;;13.15;;
66478;SDS011;53294;47.912;13.526;2022-08-24T06:06:22;16.33;;;12.68;;
66478;SDS011;53294;47.912;13.526;2022-08-24T06:08:50;18.65;;;12.77;;
66478;SDS011;53294;47.912;13.526;2022-08-24T06:11:24;19.95;;;12.65;;
66478;SDS011;53294;47.912;13.526;2022-08-24T06:13:59;20.67;;;14.13;;
66478;SDS011;53294;47.912;13.526;2022-08-24T06:16:36;18.40;;;12.45;;
66478;SDS011;53294;47.912;13.526;2022-08-24T06:19:05;19.33;;;13.60;;
66478;SDS011;53294;47.912;13.526;2022-08-24T06:21:32;21.00;;;14.30;;
66478;SDS011;53294;47.912;13.526;2022-08-24T06:23:59;18.00;;;13.05;;
66478;SDS011;53294;47.912;13.526;2022-08-24T06:26:26;21.20;;;13.25;;
66478;SDS011;53294;47.912;13.526;2022-08-24T06:29:16;19.90;;;13.50;;
66478;SDS011;53294;47.912;13.526;2022-08-24T06:31:44;22.10;;;14.10;;
66478;SDS011;53294;47.912;13.526;2022-08-24T06:34:20;21.38;;;13.70;;
66478;SDS011;53294;47.912;13.526;2022-08-24T06:36:48;19.60;;;12.27;;
66478;SDS011;53294;47.912;13.526;2022-08-24T06:39:15;18.30;;;11.93;;
66478;SDS011;53294;47.912;13.526;2022-08-24T06:41:42;17.50;;;12.05;;
66478;SDS011;53294;47.912;13.526;2022-08-24T06:44:09;16.92;;;11.73;;
66478;SDS011;53294;47.912;13.526;2022-08-24T06:46:38;18.98;;;13.00;;
66478;SDS011;53294;47.912;13.526;2022-08-24T06:49:05;15.15;;;10.30;;
66478;SDS011;53294;47.912;13.526;2022-08-24T06:51:31;15.20;;;10.82;;
66478;SDS011;53294;47.912;13.526;2022-08-24T06:53:59;14.60;;;10.23;;
66478;SDS011;53294;47.912;13.526;2022-08-24T06:56:25;15.70;;;10.38;;
66478;SDS011;53294;47.912;13.526;2022-08-24T06:58:52;11.85;;;8.15;;
66478;SDS011;53294;47.912;13.526;2022-08-24T07:01:20;12.48;;;8.70;;
66478;SDS011;53294;47.912;13.526;2022-08-24T07:03:48;11.50;;;8.20;;
66478;SDS011;53294;47.912;13.526;2022-08-24T07:06:15;11.07;;;7.13;;
66478;SDS011;53294;47.912;13.526;2022-08-24T07:08:43;12.00;;;7.72;;
66478;SDS011;53294;47.912;13.526;2022-08-24T07:11:10;12.68;;;8.32;;
66478;SDS011;53294;47.912;13.526;2022-08-24T07:13:43;10.80;;;7.13;;
66478;SDS011;53294;47.912;13.526;2022-08-24T07:16:14;11.82;;;7.50;;
66478;SDS011;53294;47.912;13.526;2022-08-24T07:18:43;10.40;;;6.72;;
66478;SDS011;53294;47.912;13.526;2022-08-24T07:21:16;9.77;;;7.03;;
66478;SDS011;53294;47.912;13.526;2022-08-24T07:23:46;8.98;;;6.65;;
66478;SDS011;53294;47.912;13.526;2022-08-24T07:26:15;8.82;;;6.40;;
66478;SDS011;53294;47.912;13.526;2022-08-24T07:28:50;9.07;;;6.20;;
66478;SDS011;53294;47.912;13.526;2022-08-24T07:31:18;11.10;;;7.28;;
66478;SDS011;53294;47.912;13.526;2022-08-24T07:33:46;9.05;;;6.93;;
66478;SDS011;53294;47.912;13.526;2022-08-24T07:36:13;10.73;;;6.38;;
66478;SDS011;53294;47.912;13.526;2022-08-24T07:38:48;9.80;;;6.38;;
66478;SDS011;53294;47.912;13.526;2022-08-24T07:41:18;10.68;;;6.07;;
66478;SDS011;53294;47.912;13.526;2022-08-24T07:44:06;7.90;;;5.75;;
66478;SDS011;53294;47.912;13.526;2022-08-24T07:46:33;9.18;;;6.40;;
66478;SDS011;53294;47.912;13.526;2022-08-24T07:49:00;8.38;;;5.78;;
66478;SDS011;53294;47.912;13.526;2022-08-24T07:51:44;9.30;;;6.13;;
66478;SDS011;53294;47.912;13.526;2022-08-24T07:54:12;7.70;;;5.32;;
66478;SDS011;53294;47.912;13.526;2022-08-24T07:56:40;6.78;;;4.53;;
66478;SDS011;53294;47.912;13.526;2022-08-24T07:59:07;8.50;;;6.57;;
66478;SDS011;53294;47.912;13.526;2022-08-24T08:01:38;10.68;;;6.68;;
66478;SDS011;53294;47.912;13.526;2022-08-24T08:04:06;10.38;;;7.13;;
66478;SDS011;53294;47.912;13.526;2022-08-24T08:06:33;9.15;;;6.55;;
66478;SDS011;53294;47.912;13.526;2022-08-24T08:09:00;7.20;;;5.15;;
66478;SDS011;53294;47.912;13.526;2022-08-24T08:11:28;8.75;;;6.53;;
66478;SDS011;53294;47.912;13.526;2022-08-24T08:13:55;8.88;;;5.80;;
66478;SDS011;53294;47.912;13.526;2022-08-24T08:16:21;7.70;;;6.18;;
66478;SDS011;53294;47.912;13.526;2022-08-24T08:18:48;8.20;;;6.07;;
66478;SDS011;53294;47.912;13.526;2022-08-24T08:21:39;10.10;;;6.68;;
66478;SDS011;53294;47.912;13.526;2022-08-24T08:24:26;7.78;;;5.32;;
66478;SDS011;53294;47.912;13.526;2022-08-24T08:26:53;6.93;;;5.75;;
66478;SDS011;53294;47.912;13.526;2022-08-24T08:29:19;10.05;;;6.10;;
66478;SDS011;53294;47.912;13.526;2022-08-24T08:31:46;7.25;;;5.30;;
66478;SDS011;53294;47.912;13.526;2022-08-24T08:34:13;8.15;;;5.38;;
66478;SDS011;53294;47.912;13.526;2022-08-24T08:36:40;10.38;;;6.22;;
66478;SDS011;53294;47.912;13.526;2022-08-24T08:39:08;8.68;;;5.78;;
66478;SDS011;53294;47.912;13.526;2022-08-24T08:41:45;7.32;;;5.60;;
66478;SDS011;53294;47.912;13.526;2022-08-24T08:47:22;9.50;;;5.72;;
66478;SDS011;53294;47.912;13.526;2022-08-24T08:55:25;7.18;;;5.20;;
66478;SDS011;53294;47.912;13.526;2022-08-24T08:58:02;5.90;;;4.30;;
66478;SDS011;53294;47.912;13.526;2022-08-24T09:00:48;7.25;;;4.70;;
66478;SDS011;53294;47.912;13.526;2022-08-24T09:03:36;6.57;;;5.10;;
66478;SDS011;53294;47.912;13.526;2022-08-24T09:09:24;6.47;;;4.28;;
66478;SDS011;53294;47.912;13.526;2022-08-24T09:12:47;6.78;;;4.20;;
66478;SDS011;53294;47.912;13.526;2022-08-24T09:15:09;6.07;;;4.18;;
66478;SDS011;53294;47.912;13.526;2022-08-24T09:21:42;5.93;;;4.03;;
66478;SDS011;53294;47.912;13.526;2022-08-24T09:26:28;6.38;;;4.40;;
66478;SDS011;53294;47.912;13.526;2022-08-24T09:29:02;6.00;;;4.10;;
66478;SDS011;53294;47.912;13.526;2022-08-24T10:02:38;3.08;;;2.08;;
66478;SDS011;53294;47.912;13.526;2022-08-24T10:07:49;3.95;;;2.10;;
66478;SDS011;53294;47.912;13.526;2022-08-24T10:15:16;3.67;;;2.30;;
66478;SDS011;53294;47.912;13.526;2022-08-24T10:26:09;2.65;;;1.35;;
66478;SDS011;53294;47.912;13.526;2022-08-24T10:31:54;2.42;;;1.80;;
66478;SDS011;53294;47.912;13.526;2022-08-24T10:46:56;2.65;;;1.75;;
66478;SDS011;53294;47.912;13.526;2022-08-24T10:55:31;3.20;;;1.80;;
66478;SDS011;53294;47.912;13.526;2022-08-24T11:00:32;2.47;;;1.77;;
66478;SDS011;53294;47.912;13.526;2022-08-24T11:05:43;2.80;;;1.48;;
66478;SDS011;53294;47.912;13.526;2022-08-24T11:13:36;2.25;;;1.60;;
66478;SDS011;53294;47.912;13.526;2022-08-24T11:16:21;3.00;;;1.60;;
66478;SDS011;53294;47.912;13.526;2022-08-24T11:18:55;2.60;;;1.83;;
66478;SDS011;53294;47.912;13.526;2022-08-24T11:26:47;2.33;;;1.60;;
66478;SDS011;53294;47.912;13.526;2022-08-24T11:29:21;2.88;;;1.63;;
66478;SDS011;53294;47.912;13.526;2022-08-24T11:31:52;2.38;;;1.85;;
66478;SDS011;53294;47.912;13.526;2022-08-24T11:34:29;2.05;;;1.60;;
66478;SDS011;53294;47.912;13.526;2022-08-24T11:37:01;2.28;;;1.83;;
66478;SDS011;53294;47.912;13.526;2022-08-24T11:39:33;3.00;;;1.80;;
66478;SDS011;53294;47.912;13.526;2022-08-24T11:42:23;2.42;;;1.75;;
66478;SDS011;53294;47.912;13.526;2022-08-24T11:54:02;2.40;;;1.90;;
66478;SDS011;53294;47.912;13.526;2022-08-24T11:56:34;3.42;;;2.03;;
66478;SDS011;53294;47.912;13.526;2022-08-24T12:07:49;3.25;;;1.90;;
66478;SDS011;53294;47.912;13.526;2022-08-24T12:10:36;3.75;;;1.70;;
66478;SDS011;53294;47.912;13.526;2022-08-24T12:13:19;2.22;;;1.50;;
66478;SDS011;53294;47.912;13.526;2022-08-24T12:21:17;3.47;;;1.85;;
66478;SDS011;53294;47.912;13.526;2022-08-24T12:23:49;2.50;;;1.77;;
66478;SDS011;53294;47.912;13.526;2022-08-24T12:29:15;2.85;;;1.52;;
66478;SDS011;53294;47.912;13.526;2022-08-24T12:31:46;2.85;;;1.50;;
66478;SDS011;53294;47.912;13.526;2022-08-24T12:34:24;2.28;;;1.45;;
66478;SDS011;53294;47.912;13.526;2022-08-24T12:39:45;2.30;;;1.55;;
66478;SDS011;53294;47.912;13.526;2022-08-24T12:42:28;3.25;;;1.67;;
66478;SDS011;53294;47.912;13.526;2022-08-24T12:45:04;2.45;;;1.50;;
66478;SDS011;53294;47.912;13.526;2022-08-24T12:47:36;2.38;;;1.45;;
66478;SDS011;53294;47.912;13.526;2022-08-24T12:50:58;2.60;;;1.48;;
66478;SDS011;53294;47.912;13.526;2022-08-24T13:01:26;3.25;;;1.58;;
66478;SDS011;53294;47.912;13.526;2022-08-24T13:06:39;2.17;;;1.50;;
66478;SDS011;53294;47.912;13.526;2022-08-24T13:09:30;2.90;;;1.67;;
66478;SDS011;53294;47.912;13.526;2022-08-24T13:23:04;2.42;;;1.67;;
66478;SDS011;53294;47.912;13.526;2022-08-24T13:35:57;2.60;;;1.70;;
66478;SDS011;53294;47.912;13.526;2022-08-24T14:09:00;2.03;;;1.50;;
66478;SDS011;53294;47.912;13.526;2022-08-24T14:14:12;2.50;;;1.55;;
66478;SDS011;53294;47.912;13.526;2022-08-24T14:16:58;1.88;;;1.40;;
66478;SDS011;53294;47.912;13.526;2022-08-24T14:22:55;3.38;;;1.80;;
66478;SDS011;53294;47.912;13.526;2022-08-24T14:25:31;3.45;;;1.85;;
66478;SDS011;53294;47.912;13.526;2022-08-24T14:43:22;2.58;;;1.55;;
66478;SDS011;53294;47.912;13.526;2022-08-24T14:48:39;3.97;;;1.80;;
66478;SDS011;53294;47.912;13.526;2022-08-24T15:07:59;3.20;;;1.90;;
66478;SDS011;53294;47.912;13.526;2022-08-24T15:13:09;2.00;;;1.45;;
66478;SDS011;53294;47.912;13.526;2022-08-24T15:15:59;3.25;;;1.85;;
66478;SDS011;53294;47.912;13.526;2022-08-24T15:18:39;2.72;;;1.77;;
66478;SDS011;53294;47.912;13.526;2022-08-24T15:23:48;2.80;;;1.70;;
66478;SDS011;53294;47.912;13.526;2022-08-24T15:29:15;3.63;;;1.70;;
66478;SDS011;53294;47.912;13.526;2022-08-24T15:31:55;3.28;;;1.90;;
66478;SDS011;53294;47.912;13.526;2022-08-24T15:34:31;3.33;;;2.00;;
66478;SDS011;53294;47.912;13.526;2022-08-24T15:37:08;3.03;;;2.10;;
66478;SDS011;53294;47.912;13.526;2022-08-24T15:39:35;3.15;;;1.95;;
66478;SDS011;53294;47.912;13.526;2022-08-24T15:42:10;2.63;;;1.85;;
66478;SDS011;53294;47.912;13.526;2022-08-24T15:44:40;3.50;;;1.77;;
66478;SDS011;53294;47.912;13.526;2022-08-24T15:52:41;4.25;;;2.28;;
66478;SDS011;53294;47.912;13.526;2022-08-24T15:55:28;2.63;;;2.03;;
66478;SDS011;53294;47.912;13.526;2022-08-24T16:00:52;5.35;;;2.28;;
66478;SDS011;53294;47.912;13.526;2022-08-24T16:03:45;2.92;;;1.92;;
66478;SDS011;53294;47.912;13.526;2022-08-24T16:06:45;3.75;;;2.25;;
66478;SDS011;53294;47.912;13.526;2022-08-24T16:14:23;3.38;;;2.10;;
66478;SDS011;53294;47.912;13.526;2022-08-24T16:16:54;2.95;;;2.05;;
66478;SDS011;53294;47.912;13.526;2022-08-24T16:19:26;2.90;;;2.10;;
66478;SDS011;53294;47.912;13.526;2022-08-24T16:22:00;3.13;;;1.80;;
66478;SDS011;53294;47.912;13.526;2022-08-24T16:24:34;3.05;;;2.03;;
66478;SDS011;53294;47.912;13.526;2022-08-24T16:37:32;2.45;;;1.60;;
66478;SDS011;53294;47.912;13.526;2022-08-24T16:39:59;2.05;;;1.40;;
66478;SDS011;53294;47.912;13.526;2022-08-24T16:42:26;2.55;;;1.58;;
66478;SDS011;53294;47.912;13.526;2022-08-24T16:44:55;3.05;;;1.63;;
66478;SDS011;53294;47.912;13.526;2022-08-24T16:47:24;2.28;;;1.67;;
66478;SDS011;53294;47.912;13.526;2022-08-24T16:49:51;2.47;;;1.83;;
66478;SDS011;53294;47.912;13.526;2022-08-24T16:52:19;2.97;;;1.95;;
66478;SDS011;53294;47.912;13.526;2022-08-24T16:54:47;2.40;;;1.70;;
66478;SDS011;53294;47.912;13.526;2022-08-24T16:57:16;2.47;;;1.90;;
66478;SDS011;53294;47.912;13.526;2022-08-24T16:59:46;3.28;;;1.90;;
66478;SDS011;53294;47.912;13.526;2022-08-24T17:02:14;2.72;;;1.63;;
66478;SDS011;53294;47.912;13.526;2022-08-24T17:04:42;3.47;;;2.00;;
66478;SDS011;53294;47.912;13.526;2022-08-24T17:07:10;3.47;;;1.95;;
66478;SDS011;53294;47.912;13.526;2022-08-24T17:09:42;2.38;;;1.63;;
66478;SDS011;53294;47.912;13.526;2022-08-24T17:12:11;3.72;;;2.20;;
66478;SDS011;53294;47.912;13.526;2022-08-24T17:14:38;2.92;;;1.73;;
66478;SDS011;53294;47.912;13.526;2022-08-24T17:17:06;3.10;;;2.10;;
66478;SDS011;53294;47.912;13.526;2022-08-24T17:19:35;3.60;;;2.17;;
66478;SDS011;53294;47.912;13.526;2022-08-24T17:22:03;3.97;;;2.22;;
66478;SDS011;53294;47.912;13.526;2022-08-24T17:24:30;3.55;;;2.10;;
66478;SDS011;53294;47.912;13.526;2022-08-24T17:26:58;4.68;;;2.20;;
66478;SDS011;53294;47.912;13.526;2022-08-24T17:29:26;2.83;;;1.90;;
66478;SDS011;53294;47.912;13.526;2022-08-24T17:31:53;3.83;;;2.28;;
66478;SDS011;53294;47.912;13.526;2022-08-24T17:34:20;3.92;;;2.03;;
66478;SDS011;53294;47.912;13.526;2022-08-24T17:36:48;3.67;;;2.47;;
66478;SDS011;53294;47.912;13.526;2022-08-24T17:39:18;4.13;;;2.17;;
66478;SDS011;53294;47.912;13.526;2022-08-24T17:41:49;3.83;;;2.00;;
66478;SDS011;53294;47.912;13.526;2022-08-24T17:44:18;3.25;;;2.05;;
66478;SDS011;53294;47.912;13.526;2022-08-24T17:49:20;2.63;;;1.85;;
66478;SDS011;53294;47.912;13.526;2022-08-24T17:51:47;3.55;;;2.20;;
66478;SDS011;53294;47.912;13.526;2022-08-24T17:54:15;3.30;;;2.20;;
66478;SDS011;53294;47.912;13.526;2022-08-24T17:56:43;3.80;;;2.20;;
66478;SDS011;53294;47.912;13.526;2022-08-24T17:59:14;3.95;;;2.47;;
66478;SDS011;53294;47.912;13.526;2022-08-24T18:01:45;4.47;;;2.47;;
66478;SDS011;53294;47.912;13.526;2022-08-24T18:04:13;4.55;;;2.50;;
66478;SDS011;53294;47.912;13.526;2022-08-24T18:06:40;3.92;;;2.35;;
66478;SDS011;53294;47.912;13.526;2022-08-24T18:09:08;4.70;;;2.63;;
66478;SDS011;53294;47.912;13.526;2022-08-24T18:11:41;4.13;;;2.28;;
66478;SDS011;53294;47.912;13.526;2022-08-24T18:14:07;4.72;;;2.63;;
66478;SDS011;53294;47.912;13.526;2022-08-24T18:16:34;4.40;;;2.30;;
66478;SDS011;53294;47.912;13.526;2022-08-24T18:19:01;4.50;;;2.40;;
66478;SDS011;53294;47.912;13.526;2022-08-24T18:21:28;5.47;;;2.25;;
66478;SDS011;53294;47.912;13.526;2022-08-24T18:23:54;4.40;;;2.80;;
66478;SDS011;53294;47.912;13.526;2022-08-24T18:26:23;3.15;;;1.90;;
66478;SDS011;53294;47.912;13.526;2022-08-24T18:28:53;4.13;;;2.25;;
66478;SDS011;53294;47.912;13.526;2022-08-24T18:31:23;3.75;;;2.20;;
66478;SDS011;53294;47.912;13.526;2022-08-24T18:33:51;4.45;;;2.67;;
66478;SDS011;53294;47.912;13.526;2022-08-24T18:36:19;4.07;;;2.30;;
66478;SDS011;53294;47.912;13.526;2022-08-24T18:38:46;3.03;;;2.13;;
66478;SDS011;53294;47.912;13.526;2022-08-24T18:41:13;3.28;;;2.15;;
66478;SDS011;53294;47.912;13.526;2022-08-24T18:43:40;3.92;;;2.30;;
66478;SDS011;53294;47.912;13.526;2022-08-24T18:46:07;4.32;;;2.38;;
66478;SDS011;53294;47.912;13.526;2022-08-24T18:48:34;5.13;;;2.45;;
66478;SDS011;53294;47.912;13.526;2022-08-24T18:51:01;4.50;;;2.70;;
66478;SDS011;53294;47.912;13.526;2022-08-24T18:53:28;4.35;;;2.60;;
66478;SDS011;53294;47.912;13.526;2022-08-24T18:55:54;4.07;;;2.80;;
66478;SDS011;53294;47.912;13.526;2022-08-24T18:58:21;3.72;;;2.53;;
66478;SDS011;53294;47.912;13.526;2022-08-24T19:00:48;4.55;;;2.40;;
66478;SDS011;53294;47.912;13.526;2022-08-24T19:03:17;3.15;;;2.28;;
66478;SDS011;53294;47.912;13.526;2022-08-24T19:05:46;4.38;;;2.38;;
66478;SDS011;53294;47.912;13.526;2022-08-24T19:08:12;4.30;;;2.80;;
66478;SDS011;53294;47.912;13.526;2022-08-24T19:10:39;6.07;;;2.67;;
66478;SDS011;53294;47.912;13.526;2022-08-24T19:13:09;3.60;;;2.30;;
66478;SDS011;53294;47.912;13.526;2022-08-24T19:15:41;5.20;;;2.75;;
66478;SDS011;53294;47.912;13.526;2022-08-24T19:18:08;4.97;;;2.58;;
66478;SDS011;53294;47.912;13.526;2022-08-24T19:20:40;5.13;;;3.17;;
66478;SDS011;53294;47.912;13.526;2022-08-24T19:23:26;4.95;;;2.80;;
66478;SDS011;53294;47.912;13.526;2022-08-24T19:25:56;4.50;;;3.17;;